sensor_id;sensor_type;location;lat;lon;timestamp;P1;durP1;ratioP1;P2;durP2;ratioP2
64500;SDS011;50874;24.150;-110.320;2022-07-10T00:01:36;8.85;;;2.45;;
64500;SDS011;50874;24.150;-110.320;2022-07-10T00:04:03;10.07;;;3.00;;
64500;SDS011;50874;24.150;-110.320;2022-07-10T00:06:29;6.97;;;2.53;;
64500;SDS011;50874;24.150;-110.320;2022-07-10T00:08:56;11.57;;;3.08;;
64500;SDS011;50874;24.150;-110.320;2022-07-10T00:11:22;8.80;;;3.42;;
64500;SDS011;50874;24.150;-110.320;2022-07-10T00:13:49;7.00;;;2.75;;
64500;SDS011;50874;24.150;-110.320;2022-07-10T00:16:15;11.13;;;2.60;;
64500;SDS011;50874;24.150;-110.320;2022-07-10T00:18:42;16.95;;;3.00;;
64500;SDS011;50874;24.150;-110.320;2022-07-10T00:21:08;9.65;;;2.70;;
64500;SDS011;50874;24.150;-110.320;2022-07-10T00:23:34;15.55;;;3.25;;
64500;SDS011;50874;24.150;-110.320;2022-07-10T00:26:01;13.63;;;2.75;;
64500;SDS011;50874;24.150;-110.320;2022-07-10T00:28:27;11.90;;;2.72;;
64500;SDS011;50874;24.150;-110.320;2022-07-10T00:30:54;12.55;;;2.47;;
64500;SDS011;50874;24.150;-110.320;2022-07-10T00:33:20;11.35;;;2.70;;
64500;SDS011;50874;24.150;-110.320;2022-07-10T00:35:47;11.23;;;2.90;;
64500;SDS011;50874;24.150;-110.320;2022-07-10T00:38:13;11.82;;;2.92;;
64500;SDS011;50874;24.150;-110.320;2022-07-10T00:40:40;11.25;;;2.78;;
64500;SDS011;50874;24.150;-110.320;2022-07-10T00:43:09;9.07;;;2.28;;
64500;SDS011;50874;24.150;-110.320;2022-07-10T00:45:36;12.35;;;2.75;;
64500;SDS011;50874;24.150;-110.320;2022-07-10T00:48:02;10.45;;;2.45;;
64500;SDS011;50874;24.150;-110.320;2022-07-10T00:50:29;14.77;;;2.50;;
64500;SDS011;50874;24.150;-110.320;2022-07-10T00:52:56;13.27;;;3.03;;
64500;SDS011;50874;24.150;-110.320;2022-07-10T00:55:23;10.77;;;3.08;;
64500;SDS011;50874;24.150;-110.320;2022-07-10T00:57:50;14.45;;;3.13;;
64500;SDS011;50874;24.150;-110.320;2022-07-10T01:00:17;9.82;;;3.13;;
64500;SDS011;50874;24.150;-110.320;2022-07-10T01:02:44;11.63;;;2.40;;
64500;SDS011;50874;24.150;-110.320;2022-07-10T01:05:11;15.50;;;3.13;;
64500;SDS011;50874;24.150;-110.320;2022-07-10T01:07:37;10.55;;;2.78;;
64500;SDS011;50874;24.150;-110.320;2022-07-10T01:10:04;11.07;;;2.97;;
64500;SDS011;50874;24.150;-110.320;2022-07-10T01:12:31;19.17;;;3.30;;
64500;SDS011;50874;24.150;-110.320;2022-07-10T01:14:58;9.73;;;2.67;;
64500;SDS011;50874;24.150;-110.320;2022-07-10T01:17:25;10.25;;;2.17;;
64500;SDS011;50874;24.150;-110.320;2022-07-10T01:19:54;16.48;;;2.85;;
64500;SDS011;50874;24.150;-110.320;2022-07-10T01:22:20;10.88;;;2.45;;
64500;SDS011;50874;24.150;-110.320;2022-07-10T01:24:47;16.88;;;3.08;;
64500;SDS011;50874;24.150;-110.320;2022-07-10T01:27:13;12.15;;;3.72;;
64500;SDS011;50874;24.150;-110.320;2022-07-10T01:29:39;17.05;;;3.03;;
64500;SDS011;50874;24.150;-110.320;2022-07-10T01:32:06;14.65;;;2.78;;
64500;SDS011;50874;24.150;-110.320;2022-07-10T01:34:33;11.23;;;2.67;;
64500;SDS011;50874;24.150;-110.320;2022-07-10T01:36:59;14.20;;;2.97;;
64500;SDS011;50874;24.150;-110.320;2022-07-10T01:39:26;8.65;;;2.58;;
64500;SDS011;50874;24.150;-110.320;2022-07-10T01:41:52;13.45;;;3.70;;
64500;SDS011;50874;24.150;-110.320;2022-07-10T01:44:18;16.10;;;3.88;;
64500;SDS011;50874;24.150;-110.320;2022-07-10T01:46:45;11.32;;;3.00;;
64500;SDS011;50874;24.150;-110.320;2022-07-10T01:49:13;9.07;;;2.65;;
64500;SDS011;50874;24.150;-110.320;2022-07-10T01:51:40;17.95;;;3.17;;
64500;SDS011;50874;24.150;-110.320;2022-07-10T01:54:07;20.20;;;2.78;;
64500;SDS011;50874;24.150;-110.320;2022-07-10T01:56:34;12.38;;;2.60;;
64500;SDS011;50874;24.150;-110.320;2022-07-10T01:59:00;13.27;;;2.53;;
64500;SDS011;50874;24.150;-110.320;2022-07-10T02:01:28;11.65;;;2.85;;
64500;SDS011;50874;24.150;-110.320;2022-07-10T02:03:55;12.68;;;3.00;;
64500;SDS011;50874;24.150;-110.320;2022-07-10T02:06:41;23.25;;;4.03;;
64500;SDS011;50874;24.150;-110.320;2022-07-10T02:09:07;10.95;;;3.30;;
64500;SDS011;50874;24.150;-110.320;2022-07-10T02:11:34;17.38;;;3.90;;
64500;SDS011;50874;24.150;-110.320;2022-07-10T02:14:00;20.25;;;3.60;;
64500;SDS011;50874;24.150;-110.320;2022-07-10T02:16:27;17.67;;;3.28;;
64500;SDS011;50874;24.150;-110.320;2022-07-10T02:18:53;16.55;;;3.50;;
64500;SDS011;50874;24.150;-110.320;2022-07-10T02:21:20;13.40;;;2.83;;
64500;SDS011;50874;24.150;-110.320;2022-07-10T02:23:46;12.73;;;3.58;;
64500;SDS011;50874;24.150;-110.320;2022-07-10T02:26:12;16.73;;;3.92;;
64500;SDS011;50874;24.150;-110.320;2022-07-10T02:28:39;16.52;;;3.22;;
64500;SDS011;50874;24.150;-110.320;2022-07-10T02:31:05;9.55;;;3.10;;
64500;SDS011;50874;24.150;-110.320;2022-07-10T02:33:32;10.90;;;2.85;;
64500;SDS011;50874;24.150;-110.320;2022-07-10T02:35:58;16.73;;;3.30;;
64500;SDS011;50874;24.150;-110.320;2022-07-10T02:38:25;11.63;;;3.08;;
64500;SDS011;50874;24.150;-110.320;2022-07-10T02:40:51;11.35;;;3.10;;
64500;SDS011;50874;24.150;-110.320;2022-07-10T02:43:17;17.92;;;3.65;;
64500;SDS011;50874;24.150;-110.320;2022-07-10T02:45:44;14.93;;;2.67;;
64500;SDS011;50874;24.150;-110.320;2022-07-10T02:48:10;17.58;;;3.80;;
64500;SDS011;50874;24.150;-110.320;2022-07-10T02:50:37;12.80;;;3.28;;
64500;SDS011;50874;24.150;-110.320;2022-07-10T02:53:03;16.23;;;3.30;;
64500;SDS011;50874;24.150;-110.320;2022-07-10T02:55:30;16.38;;;3.70;;
64500;SDS011;50874;24.150;-110.320;2022-07-10T02:57:57;17.95;;;3.60;;
64500;SDS011;50874;24.150;-110.320;2022-07-10T03:00:25;15.13;;;3.30;;
64500;SDS011;50874;24.150;-110.320;2022-07-10T03:02:53;14.38;;;3.25;;
64500;SDS011;50874;24.150;-110.320;2022-07-10T03:05:20;9.65;;;3.10;;
64500;SDS011;50874;24.150;-110.320;2022-07-10T03:07:47;12.45;;;3.08;;
64500;SDS011;50874;24.150;-110.320;2022-07-10T03:10:13;13.40;;;3.55;;
64500;SDS011;50874;24.150;-110.320;2022-07-10T03:12:39;10.60;;;3.40;;
64500;SDS011;50874;24.150;-110.320;2022-07-10T03:15:06;14.07;;;3.20;;
64500;SDS011;50874;24.150;-110.320;2022-07-10T03:17:34;11.50;;;3.88;;
64500;SDS011;50874;24.150;-110.320;2022-07-10T03:20:00;12.85;;;3.50;;
64500;SDS011;50874;24.150;-110.320;2022-07-10T03:22:27;13.02;;;3.40;;
64500;SDS011;50874;24.150;-110.320;2022-07-10T03:24:54;16.23;;;3.05;;
64500;SDS011;50874;24.150;-110.320;2022-07-10T03:27:20;14.70;;;4.03;;
64500;SDS011;50874;24.150;-110.320;2022-07-10T03:29:47;15.45;;;4.05;;
64500;SDS011;50874;24.150;-110.320;2022-07-10T03:32:13;15.05;;;3.33;;
64500;SDS011;50874;24.150;-110.320;2022-07-10T03:34:39;13.00;;;3.67;;
64500;SDS011;50874;24.150;-110.320;2022-07-10T03:37:06;15.75;;;3.78;;
64500;SDS011;50874;24.150;-110.320;2022-07-10T03:39:32;18.77;;;3.80;;
64500;SDS011;50874;24.150;-110.320;2022-07-10T03:41:59;15.68;;;4.10;;
64500;SDS011;50874;24.150;-110.320;2022-07-10T03:44:25;15.05;;;3.35;;
64500;SDS011;50874;24.150;-110.320;2022-07-10T03:46:52;9.13;;;3.00;;
64500;SDS011;50874;24.150;-110.320;2022-07-10T03:49:18;16.90;;;3.30;;
64500;SDS011;50874;24.150;-110.320;2022-07-10T03:51:47;13.05;;;3.13;;
64500;SDS011;50874;24.150;-110.320;2022-07-10T03:54:14;16.83;;;3.80;;
64500;SDS011;50874;24.150;-110.320;2022-07-10T03:56:41;18.80;;;4.18;;
64500;SDS011;50874;24.150;-110.320;2022-07-10T03:59:25;18.35;;;3.15;;
64500;SDS011;50874;24.150;-110.320;2022-07-10T04:01:51;11.88;;;3.50;;
64500;SDS011;50874;24.150;-110.320;2022-07-10T04:04:18;12.43;;;2.90;;
64500;SDS011;50874;24.150;-110.320;2022-07-10T04:06:45;21.02;;;3.72;;
64500;SDS011;50874;24.150;-110.320;2022-07-10T04:09:11;13.52;;;3.75;;
64500;SDS011;50874;24.150;-110.320;2022-07-10T04:11:37;25.02;;;4.07;;
64500;SDS011;50874;24.150;-110.320;2022-07-10T04:14:04;13.68;;;3.72;;
64500;SDS011;50874;24.150;-110.320;2022-07-10T04:16:30;18.30;;;3.55;;
64500;SDS011;50874;24.150;-110.320;2022-07-10T04:18:57;17.92;;;4.43;;
64500;SDS011;50874;24.150;-110.320;2022-07-10T04:21:23;25.00;;;4.38;;
64500;SDS011;50874;24.150;-110.320;2022-07-10T04:23:50;16.10;;;4.50;;
64500;SDS011;50874;24.150;-110.320;2022-07-10T04:26:16;14.00;;;4.00;;
64500;SDS011;50874;24.150;-110.320;2022-07-10T04:28:43;11.55;;;3.60;;
64500;SDS011;50874;24.150;-110.320;2022-07-10T04:31:09;14.50;;;3.58;;
64500;SDS011;50874;24.150;-110.320;2022-07-10T04:33:36;19.48;;;4.00;;
64500;SDS011;50874;24.150;-110.320;2022-07-10T04:36:02;17.13;;;4.07;;
64500;SDS011;50874;24.150;-110.320;2022-07-10T04:38:29;13.98;;;3.70;;
64500;SDS011;50874;24.150;-110.320;2022-07-10T04:40:57;14.27;;;3.65;;
64500;SDS011;50874;24.150;-110.320;2022-07-10T04:43:24;13.75;;;3.35;;
64500;SDS011;50874;24.150;-110.320;2022-07-10T04:45:50;12.20;;;3.50;;
64500;SDS011;50874;24.150;-110.320;2022-07-10T04:48:17;12.50;;;3.13;;
64500;SDS011;50874;24.150;-110.320;2022-07-10T04:50:43;11.60;;;3.45;;
64500;SDS011;50874;24.150;-110.320;2022-07-10T04:53:09;19.00;;;3.90;;
64500;SDS011;50874;24.150;-110.320;2022-07-10T04:55:36;13.80;;;3.20;;
64500;SDS011;50874;24.150;-110.320;2022-07-10T04:58:02;13.95;;;3.90;;
64500;SDS011;50874;24.150;-110.320;2022-07-10T05:00:29;14.20;;;3.58;;
64500;SDS011;50874;24.150;-110.320;2022-07-10T05:02:55;15.05;;;3.33;;
64500;SDS011;50874;24.150;-110.320;2022-07-10T05:05:22;15.10;;;3.60;;
64500;SDS011;50874;24.150;-110.320;2022-07-10T05:07:48;11.18;;;3.53;;
64500;SDS011;50874;24.150;-110.320;2022-07-10T05:10:14;18.98;;;4.05;;
64500;SDS011;50874;24.150;-110.320;2022-07-10T05:12:41;12.02;;;2.92;;
64500;SDS011;50874;24.150;-110.320;2022-07-10T05:15:08;11.98;;;3.42;;
64500;SDS011;50874;24.150;-110.320;2022-07-10T05:17:34;14.32;;;3.90;;
64500;SDS011;50874;24.150;-110.320;2022-07-10T05:20:01;9.25;;;3.25;;
64500;SDS011;50874;24.150;-110.320;2022-07-10T05:22:27;7.15;;;2.90;;
64500;SDS011;50874;24.150;-110.320;2022-07-10T05:24:55;14.43;;;3.67;;
64500;SDS011;50874;24.150;-110.320;2022-07-10T05:27:22;16.15;;;4.20;;
64500;SDS011;50874;24.150;-110.320;2022-07-10T05:29:49;13.00;;;3.90;;
64500;SDS011;50874;24.150;-110.320;2022-07-10T05:32:16;14.30;;;3.85;;
64500;SDS011;50874;24.150;-110.320;2022-07-10T05:34:42;12.55;;;3.78;;
64500;SDS011;50874;24.150;-110.320;2022-07-10T05:37:08;10.63;;;3.55;;
64500;SDS011;50874;24.150;-110.320;2022-07-10T05:39:35;10.43;;;3.00;;
64500;SDS011;50874;24.150;-110.320;2022-07-10T05:42:01;14.57;;;3.25;;
64500;SDS011;50874;24.150;-110.320;2022-07-10T05:44:28;12.65;;;3.17;;
64500;SDS011;50874;24.150;-110.320;2022-07-10T05:46:55;16.17;;;3.17;;
64500;SDS011;50874;24.150;-110.320;2022-07-10T05:49:21;13.10;;;3.08;;
64500;SDS011;50874;24.150;-110.320;2022-07-10T05:51:47;10.07;;;3.17;;
64500;SDS011;50874;24.150;-110.320;2022-07-10T05:54:14;14.65;;;3.30;;
64500;SDS011;50874;24.150;-110.320;2022-07-10T05:56:40;13.40;;;3.13;;
64500;SDS011;50874;24.150;-110.320;2022-07-10T05:59:07;11.18;;;3.95;;
64500;SDS011;50874;24.150;-110.320;2022-07-10T06:01:33;19.38;;;2.88;;
64500;SDS011;50874;24.150;-110.320;2022-07-10T06:04:01;14.60;;;3.22;;
64500;SDS011;50874;24.150;-110.320;2022-07-10T06:06:27;9.43;;;3.03;;
64500;SDS011;50874;24.150;-110.320;2022-07-10T06:08:53;9.35;;;2.55;;
64500;SDS011;50874;24.150;-110.320;2022-07-10T06:11:20;10.77;;;3.08;;
64500;SDS011;50874;24.150;-110.320;2022-07-10T06:13:46;14.05;;;3.80;;
64500;SDS011;50874;24.150;-110.320;2022-07-10T06:16:13;15.15;;;3.20;;
64500;SDS011;50874;24.150;-110.320;2022-07-10T06:18:39;9.20;;;2.70;;
64500;SDS011;50874;24.150;-110.320;2022-07-10T06:21:06;11.60;;;3.13;;
64500;SDS011;50874;24.150;-110.320;2022-07-10T06:23:33;11.45;;;3.22;;
64500;SDS011;50874;24.150;-110.320;2022-07-10T06:25:59;14.65;;;3.38;;
64500;SDS011;50874;24.150;-110.320;2022-07-10T06:28:26;16.92;;;4.07;;
64500;SDS011;50874;24.150;-110.320;2022-07-10T06:30:52;11.95;;;3.53;;
64500;SDS011;50874;24.150;-110.320;2022-07-10T06:33:19;11.65;;;3.10;;
64500;SDS011;50874;24.150;-110.320;2022-07-10T06:35:45;18.23;;;3.30;;
64500;SDS011;50874;24.150;-110.320;2022-07-10T06:38:12;11.60;;;3.65;;
64500;SDS011;50874;24.150;-110.320;2022-07-10T06:40:38;11.35;;;3.30;;
64500;SDS011;50874;24.150;-110.320;2022-07-10T06:43:06;9.73;;;2.80;;
64500;SDS011;50874;24.150;-110.320;2022-07-10T06:45:33;10.48;;;3.40;;
64500;SDS011;50874;24.150;-110.320;2022-07-10T06:47:59;19.38;;;4.13;;
64500;SDS011;50874;24.150;-110.320;2022-07-10T06:50:26;12.23;;;3.40;;
64500;SDS011;50874;24.150;-110.320;2022-07-10T06:52:58;10.77;;;2.97;;
64500;SDS011;50874;24.150;-110.320;2022-07-10T06:55:25;12.57;;;3.25;;
64500;SDS011;50874;24.150;-110.320;2022-07-10T06:57:52;15.48;;;3.08;;
64500;SDS011;50874;24.150;-110.320;2022-07-10T07:00:19;14.60;;;3.47;;
64500;SDS011;50874;24.150;-110.320;2022-07-10T07:02:46;14.43;;;3.58;;
64500;SDS011;50874;24.150;-110.320;2022-07-10T07:05:13;13.73;;;3.80;;
64500;SDS011;50874;24.150;-110.320;2022-07-10T07:07:39;13.68;;;3.85;;
64500;SDS011;50874;24.150;-110.320;2022-07-10T07:10:06;11.98;;;3.15;;
64500;SDS011;50874;24.150;-110.320;2022-07-10T07:12:33;13.38;;;3.67;;
64500;SDS011;50874;24.150;-110.320;2022-07-10T07:15:00;12.18;;;3.15;;
64500;SDS011;50874;24.150;-110.320;2022-07-10T07:17:27;16.50;;;3.67;;
64500;SDS011;50874;24.150;-110.320;2022-07-10T07:19:59;12.57;;;3.30;;
64500;SDS011;50874;24.150;-110.320;2022-07-10T07:22:44;11.05;;;2.55;;
64500;SDS011;50874;24.150;-110.320;2022-07-10T07:25:29;13.98;;;2.97;;
64500;SDS011;50874;24.150;-110.320;2022-07-10T07:27:56;9.10;;;2.83;;
64500;SDS011;50874;24.150;-110.320;2022-07-10T07:30:22;14.57;;;2.95;;
64500;SDS011;50874;24.150;-110.320;2022-07-10T07:32:49;10.10;;;2.50;;
64500;SDS011;50874;24.150;-110.320;2022-07-10T07:35:16;8.27;;;2.47;;
64500;SDS011;50874;24.150;-110.320;2022-07-10T07:37:46;11.63;;;2.65;;
64500;SDS011;50874;24.150;-110.320;2022-07-10T07:40:15;8.98;;;2.90;;
64500;SDS011;50874;24.150;-110.320;2022-07-10T07:42:45;11.82;;;2.80;;
64500;SDS011;50874;24.150;-110.320;2022-07-10T07:45:12;9.82;;;2.65;;
64500;SDS011;50874;24.150;-110.320;2022-07-10T07:50:18;9.38;;;2.60;;
64500;SDS011;50874;24.150;-110.320;2022-07-10T07:52:47;14.90;;;3.45;;
64500;SDS011;50874;24.150;-110.320;2022-07-10T07:55:14;10.68;;;2.47;;
64500;SDS011;50874;24.150;-110.320;2022-07-10T07:57:42;12.10;;;3.30;;
64500;SDS011;50874;24.150;-110.320;2022-07-10T08:00:09;10.15;;;2.67;;
64500;SDS011;50874;24.150;-110.320;2022-07-10T08:02:36;9.05;;;2.55;;
64500;SDS011;50874;24.150;-110.320;2022-07-10T08:05:03;20.08;;;3.17;;
64500;SDS011;50874;24.150;-110.320;2022-07-10T08:08:04;14.23;;;2.75;;
64500;SDS011;50874;24.150;-110.320;2022-07-10T08:10:26;6.88;;;2.42;;
64500;SDS011;50874;24.150;-110.320;2022-07-10T08:12:53;15.52;;;3.05;;
64500;SDS011;50874;24.150;-110.320;2022-07-10T08:15:20;15.43;;;3.55;;
64500;SDS011;50874;24.150;-110.320;2022-07-10T08:17:51;9.25;;;2.35;;
64500;SDS011;50874;24.150;-110.320;2022-07-10T08:20:19;10.82;;;2.38;;
64500;SDS011;50874;24.150;-110.320;2022-07-10T08:22:46;10.18;;;2.80;;
64500;SDS011;50874;24.150;-110.320;2022-07-10T08:25:13;9.45;;;2.55;;
64500;SDS011;50874;24.150;-110.320;2022-07-10T08:27:40;11.68;;;2.53;;
64500;SDS011;50874;24.150;-110.320;2022-07-10T08:30:07;14.82;;;3.28;;
64500;SDS011;50874;24.150;-110.320;2022-07-10T08:32:35;10.55;;;2.50;;
64500;SDS011;50874;24.150;-110.320;2022-07-10T08:35:02;15.27;;;2.72;;
64500;SDS011;50874;24.150;-110.320;2022-07-10T08:37:29;10.07;;;2.55;;
64500;SDS011;50874;24.150;-110.320;2022-07-10T08:40:01;11.77;;;2.92;;
64500;SDS011;50874;24.150;-110.320;2022-07-10T08:42:28;8.80;;;2.50;;
64500;SDS011;50874;24.150;-110.320;2022-07-10T08:44:58;9.35;;;2.60;;
64500;SDS011;50874;24.150;-110.320;2022-07-10T08:47:25;11.27;;;2.70;;
64500;SDS011;50874;24.150;-110.320;2022-07-10T08:49:52;8.38;;;2.80;;
64500;SDS011;50874;24.150;-110.320;2022-07-10T08:54:54;9.30;;;2.67;;
64500;SDS011;50874;24.150;-110.320;2022-07-10T08:57:22;5.07;;;2.22;;
64500;SDS011;50874;24.150;-110.320;2022-07-10T08:59:49;9.75;;;2.85;;
64500;SDS011;50874;24.150;-110.320;2022-07-10T09:02:16;9.07;;;2.08;;
64500;SDS011;50874;24.150;-110.320;2022-07-10T09:04:42;9.13;;;2.33;;
64500;SDS011;50874;24.150;-110.320;2022-07-10T09:07:09;8.43;;;2.35;;
64500;SDS011;50874;24.150;-110.320;2022-07-10T09:09:52;5.70;;;1.77;;
64500;SDS011;50874;24.150;-110.320;2022-07-10T09:14:47;9.10;;;1.83;;
64500;SDS011;50874;24.150;-110.320;2022-07-10T09:17:14;7.50;;;1.80;;
64500;SDS011;50874;24.150;-110.320;2022-07-10T09:19:42;6.47;;;1.60;;
64500;SDS011;50874;24.150;-110.320;2022-07-10T09:22:10;7.00;;;1.98;;
64500;SDS011;50874;24.150;-110.320;2022-07-10T09:24:40;7.38;;;2.08;;
64500;SDS011;50874;24.150;-110.320;2022-07-10T09:27:08;4.35;;;1.77;;
64500;SDS011;50874;24.150;-110.320;2022-07-10T09:29:49;7.05;;;1.67;;
64500;SDS011;50874;24.150;-110.320;2022-07-10T09:32:20;6.57;;;2.20;;
64500;SDS011;50874;24.150;-110.320;2022-07-10T09:34:48;4.63;;;1.50;;
64500;SDS011;50874;24.150;-110.320;2022-07-10T09:37:41;7.80;;;1.75;;
64500;SDS011;50874;24.150;-110.320;2022-07-10T09:40:09;7.55;;;1.95;;
64500;SDS011;50874;24.150;-110.320;2022-07-10T09:42:37;8.05;;;2.05;;
64500;SDS011;50874;24.150;-110.320;2022-07-10T09:47:37;13.85;;;2.22;;
64500;SDS011;50874;24.150;-110.320;2022-07-10T09:52:51;6.53;;;1.70;;
64500;SDS011;50874;24.150;-110.320;2022-07-10T09:55:20;7.47;;;1.75;;
64500;SDS011;50874;24.150;-110.320;2022-07-10T09:57:52;14.70;;;2.05;;
64500;SDS011;50874;24.150;-110.320;2022-07-10T10:00:24;14.45;;;2.67;;
64500;SDS011;50874;24.150;-110.320;2022-07-10T10:02:56;9.27;;;2.25;;
64500;SDS011;50874;24.150;-110.320;2022-07-10T10:05:26;10.55;;;2.33;;
64500;SDS011;50874;24.150;-110.320;2022-07-10T10:08:01;7.65;;;1.85;;
64500;SDS011;50874;24.150;-110.320;2022-07-10T10:10:37;4.72;;;1.45;;
64500;SDS011;50874;24.150;-110.320;2022-07-10T10:13:19;9.75;;;1.60;;
64500;SDS011;50874;24.150;-110.320;2022-07-10T10:15:47;8.13;;;1.67;;
64500;SDS011;50874;24.150;-110.320;2022-07-10T10:18:20;5.35;;;1.95;;
64500;SDS011;50874;24.150;-110.320;2022-07-10T10:20:49;7.35;;;1.95;;
64500;SDS011;50874;24.150;-110.320;2022-07-10T10:23:17;7.40;;;1.60;;
64500;SDS011;50874;24.150;-110.320;2022-07-10T10:25:54;3.70;;;1.65;;
64500;SDS011;50874;24.150;-110.320;2022-07-10T10:28:23;6.68;;;1.55;;
64500;SDS011;50874;24.150;-110.320;2022-07-10T10:30:59;4.75;;;1.10;;
64500;SDS011;50874;24.150;-110.320;2022-07-10T10:36:07;3.47;;;1.05;;
64500;SDS011;50874;24.150;-110.320;2022-07-10T10:41:22;7.40;;;1.23;;
64500;SDS011;50874;24.150;-110.320;2022-07-10T10:44:37;7.82;;;1.95;;
64500;SDS011;50874;24.150;-110.320;2022-07-10T10:49:23;3.63;;;1.55;;
64500;SDS011;50874;24.150;-110.320;2022-07-10T10:54:24;3.80;;;1.27;;
64500;SDS011;50874;24.150;-110.320;2022-07-10T10:57:12;4.47;;;1.65;;
64500;SDS011;50874;24.150;-110.320;2022-07-10T10:59:45;8.77;;;1.63;;
64500;SDS011;50874;24.150;-110.320;2022-07-10T11:08:03;7.93;;;1.65;;
64500;SDS011;50874;24.150;-110.320;2022-07-10T11:10:42;4.90;;;1.77;;
64500;SDS011;50874;24.150;-110.320;2022-07-10T11:13:16;7.78;;;2.25;;
64500;SDS011;50874;24.150;-110.320;2022-07-10T11:18:17;7.68;;;2.33;;
64500;SDS011;50874;24.150;-110.320;2022-07-10T11:20:50;10.77;;;1.98;;
64500;SDS011;50874;24.150;-110.320;2022-07-10T11:25:51;7.63;;;1.67;;
64500;SDS011;50874;24.150;-110.320;2022-07-10T11:28:54;5.63;;;1.70;;
64500;SDS011;50874;24.150;-110.320;2022-07-10T11:31:22;4.43;;;2.05;;
64500;SDS011;50874;24.150;-110.320;2022-07-10T11:33:49;7.35;;;2.38;;
64500;SDS011;50874;24.150;-110.320;2022-07-10T11:36:21;3.72;;;1.60;;
64500;SDS011;50874;24.150;-110.320;2022-07-10T11:39:02;5.72;;;1.30;;
64500;SDS011;50874;24.150;-110.320;2022-07-10T11:41:33;7.82;;;1.95;;
64500;SDS011;50874;24.150;-110.320;2022-07-10T11:44:00;4.95;;;1.80;;
64500;SDS011;50874;24.150;-110.320;2022-07-10T11:46:29;4.70;;;1.30;;
64500;SDS011;50874;24.150;-110.320;2022-07-10T11:48:58;9.40;;;1.75;;
64500;SDS011;50874;24.150;-110.320;2022-07-10T11:51:25;3.95;;;1.17;;
64500;SDS011;50874;24.150;-110.320;2022-07-10T11:54:02;5.45;;;1.67;;
64500;SDS011;50874;24.150;-110.320;2022-07-10T11:56:30;3.92;;;1.10;;
64500;SDS011;50874;24.150;-110.320;2022-07-10T11:59:05;9.48;;;1.08;;
64500;SDS011;50874;24.150;-110.320;2022-07-10T12:01:33;7.20;;;1.33;;
64500;SDS011;50874;24.150;-110.320;2022-07-10T12:04:02;5.00;;;1.23;;
64500;SDS011;50874;24.150;-110.320;2022-07-10T12:06:30;2.67;;;1.00;;
64500;SDS011;50874;24.150;-110.320;2022-07-10T12:09:03;2.72;;;1.20;;
64500;SDS011;50874;24.150;-110.320;2022-07-10T12:11:31;3.20;;;1.00;;
64500;SDS011;50874;24.150;-110.320;2022-07-10T12:14:17;2.60;;;0.95;;
64500;SDS011;50874;24.150;-110.320;2022-07-10T12:16:46;4.03;;;1.20;;
64500;SDS011;50874;24.150;-110.320;2022-07-10T12:19:14;3.75;;;1.23;;
64500;SDS011;50874;24.150;-110.320;2022-07-10T12:21:42;4.40;;;1.30;;
64500;SDS011;50874;24.150;-110.320;2022-07-10T12:24:11;3.00;;;1.08;;
64500;SDS011;50874;24.150;-110.320;2022-07-10T12:26:40;3.85;;;1.40;;
64500;SDS011;50874;24.150;-110.320;2022-07-10T12:29:11;7.38;;;1.40;;
64500;SDS011;50874;24.150;-110.320;2022-07-10T12:31:48;10.63;;;1.70;;
64500;SDS011;50874;24.150;-110.320;2022-07-10T12:34:16;9.68;;;1.40;;
64500;SDS011;50874;24.150;-110.320;2022-07-10T12:36:52;6.78;;;1.75;;
64500;SDS011;50874;24.150;-110.320;2022-07-10T12:39:23;7.70;;;1.95;;
64500;SDS011;50874;24.150;-110.320;2022-07-10T12:47:20;6.20;;;1.60;;
64500;SDS011;50874;24.150;-110.320;2022-07-10T12:49:56;12.27;;;2.22;;
64500;SDS011;50874;24.150;-110.320;2022-07-10T12:52:30;12.13;;;1.67;;
64500;SDS011;50874;24.150;-110.320;2022-07-10T12:55:43;7.07;;;1.50;;
64500;SDS011;50874;24.150;-110.320;2022-07-10T12:58:04;16.73;;;2.30;;
64500;SDS011;50874;24.150;-110.320;2022-07-10T13:00:43;10.68;;;1.90;;
64500;SDS011;50874;24.150;-110.320;2022-07-10T13:03:19;9.00;;;1.83;;
64500;SDS011;50874;24.150;-110.320;2022-07-10T13:05:50;6.90;;;1.85;;
64500;SDS011;50874;24.150;-110.320;2022-07-10T13:10:50;11.68;;;2.63;;
64500;SDS011;50874;24.150;-110.320;2022-07-10T13:13:21;15.57;;;2.42;;
64500;SDS011;50874;24.150;-110.320;2022-07-10T13:15:48;10.82;;;3.38;;
64500;SDS011;50874;24.150;-110.320;2022-07-10T13:18:25;10.35;;;2.60;;
64500;SDS011;50874;24.150;-110.320;2022-07-10T13:20:56;7.75;;;2.10;;
64500;SDS011;50874;24.150;-110.320;2022-07-10T13:23:23;5.47;;;2.47;;
64500;SDS011;50874;24.150;-110.320;2022-07-10T13:25:54;11.27;;;2.85;;
64500;SDS011;50874;24.150;-110.320;2022-07-10T13:28:21;10.23;;;2.13;;
64500;SDS011;50874;24.150;-110.320;2022-07-10T13:30:49;9.35;;;2.38;;
64500;SDS011;50874;24.150;-110.320;2022-07-10T13:33:16;8.75;;;1.90;;
64500;SDS011;50874;24.150;-110.320;2022-07-10T13:35:42;6.47;;;2.15;;
64500;SDS011;50874;24.150;-110.320;2022-07-10T13:38:09;8.73;;;2.22;;
64500;SDS011;50874;24.150;-110.320;2022-07-10T13:40:36;13.25;;;2.80;;
64500;SDS011;50874;24.150;-110.320;2022-07-10T13:43:03;8.50;;;2.22;;
64500;SDS011;50874;24.150;-110.320;2022-07-10T13:45:31;7.80;;;1.85;;
64500;SDS011;50874;24.150;-110.320;2022-07-10T13:48:10;11.60;;;2.53;;
64500;SDS011;50874;24.150;-110.320;2022-07-10T13:50:44;8.82;;;1.98;;
64500;SDS011;50874;24.150;-110.320;2022-07-10T13:53:12;10.25;;;1.90;;
64500;SDS011;50874;24.150;-110.320;2022-07-10T13:55:39;11.27;;;2.78;;
64500;SDS011;50874;24.150;-110.320;2022-07-10T13:58:06;12.60;;;2.40;;
64500;SDS011;50874;24.150;-110.320;2022-07-10T14:00:34;9.10;;;2.28;;
64500;SDS011;50874;24.150;-110.320;2022-07-10T14:03:01;9.77;;;2.95;;
64500;SDS011;50874;24.150;-110.320;2022-07-10T14:05:28;10.95;;;2.65;;
64500;SDS011;50874;24.150;-110.320;2022-07-10T14:07:54;9.68;;;2.95;;
64500;SDS011;50874;24.150;-110.320;2022-07-10T14:10:21;13.80;;;3.17;;
64500;SDS011;50874;24.150;-110.320;2022-07-10T14:12:48;10.02;;;2.00;;
64500;SDS011;50874;24.150;-110.320;2022-07-10T14:15:15;13.32;;;2.60;;
64500;SDS011;50874;24.150;-110.320;2022-07-10T14:17:42;7.43;;;2.30;;
64500;SDS011;50874;24.150;-110.320;2022-07-10T14:20:09;19.42;;;2.90;;
64500;SDS011;50874;24.150;-110.320;2022-07-10T14:22:36;12.32;;;3.03;;
64500;SDS011;50874;24.150;-110.320;2022-07-10T14:25:03;12.55;;;2.83;;
64500;SDS011;50874;24.150;-110.320;2022-07-10T14:27:30;5.63;;;2.35;;
64500;SDS011;50874;24.150;-110.320;2022-07-10T14:29:58;12.55;;;2.53;;
64500;SDS011;50874;24.150;-110.320;2022-07-10T14:32:25;9.77;;;2.20;;
64500;SDS011;50874;24.150;-110.320;2022-07-10T14:34:51;8.07;;;2.05;;
64500;SDS011;50874;24.150;-110.320;2022-07-10T14:37:18;7.78;;;1.85;;
64500;SDS011;50874;24.150;-110.320;2022-07-10T14:39:44;12.95;;;2.58;;
64500;SDS011;50874;24.150;-110.320;2022-07-10T14:42:11;8.70;;;1.77;;
64500;SDS011;50874;24.150;-110.320;2022-07-10T14:44:38;10.02;;;1.95;;
64500;SDS011;50874;24.150;-110.320;2022-07-10T14:47:04;7.95;;;2.17;;
64500;SDS011;50874;24.150;-110.320;2022-07-10T14:49:30;16.52;;;2.42;;
64500;SDS011;50874;24.150;-110.320;2022-07-10T14:51:57;8.82;;;2.00;;